Time;durP1;ratioP1;P1;durP2;ratioP2;P2;SDS_P1;SDS_P2;PMS_P1;PMS_P2;Temp;Humidity;BMP_temperature;BMP_pressure;BME280_temperature;BME280_humidity;BME280_pressure;Samples;Min_cycle;Max_cycle;Signal;HPM_P1;HPM_P2
2023/11/27 00:01:42;;;;;;;3.20;1.50;;;;;;;-145.69;63.98;52404.78;5074040;28;20203;-79
2023/11/27 00:04:08;;;;;;;1.40;1.30;;;;;;;-145.69;63.76;52384.97;5074417;28;20207;-79
2023/11/27 00:06:36;;;;;;;2.93;1.33;;;;;;;-145.69;63.53;52412.69;5073983;28;20222;-79
2023/11/27 00:09:02;;;;;;;2.03;1.53;;;;;;;-145.69;64.33;52392.91;5074101;28;20246;-79
2023/11/27 00:11:29;;;;;;;2.33;1.50;;;;;;;-145.69;64.40;52392.91;5073901;28;20701;-79
2023/11/27 00:13:55;;;;;;;7.03;2.10;;;;;;;-145.69;63.84;52410.72;5073820;28;20206;-79
2023/11/27 00:16:22;;;;;;;6.00;1.70;;;;;;;-145.69;64.30;52420.63;5073936;28;20206;-79
2023/11/27 00:18:49;;;;;;;2.30;1.70;;;;;;;-145.69;64.55;52412.69;5073392;28;20214;-79
2023/11/27 00:21:16;;;;;;;1.30;1.20;;;;;;;-145.69;64.57;52432.50;5073459;28;20194;-80
2023/11/27 00:23:43;;;;;;;2.13;1.47;;;;;;;-145.69;63.86;52420.63;5073821;28;20202;-80
2023/11/27 00:26:10;;;;;;;2.70;1.50;;;;;;;-145.69;64.01;52426.56;5073443;28;20203;-79
2023/11/27 00:28:37;;;;;;;2.33;1.40;;;;;;;-145.69;63.94;52392.91;5073659;28;20209;-80
2023/11/27 00:31:06;;;;;;;4.53;1.70;;;;;;;-145.69;63.51;52388.94;5073633;28;20230;-79
2023/11/27 00:33:34;;;;;;;2.80;1.33;;;;;;;-145.69;63.69;52424.59;5073697;28;20268;-80
2023/11/27 00:36:00;;;;;;;3.20;1.50;;;;;;;-145.69;64.09;52402.78;5073442;28;20662;-79
2023/11/27 00:38:27;;;;;;;2.97;1.67;;;;;;;-145.69;63.89;52410.72;5073634;28;20207;-80
2023/11/27 00:40:54;;;;;;;2.87;1.40;;;;;;;-145.69;63.69;52414.69;5073506;28;20278;-80
2023/11/27 00:43:21;;;;;;;2.50;1.47;;;;;;;-145.69;63.59;52446.38;5072994;28;20214;-80
2023/11/27 00:45:47;;;;;;;4.33;1.67;;;;;;;-145.69;63.59;52416.66;5073324;28;20202;-80
2023/11/27 00:48:14;;;;;;;3.07;1.63;;;;;;;-145.69;63.03;52414.69;5073572;28;20210;-80
2023/11/27 00:50:41;;;;;;;3.60;1.50;;;;;;;-145.69;63.37;52440.44;5073222;28;20286;-80
2023/11/27 00:53:07;;;;;;;5.53;1.83;;;;;;;-145.69;63.25;52438.44;5073236;28;20223;-80
2023/11/27 00:55:34;;;;;;;3.90;1.60;;;;;;;-145.69;63.50;52384.97;5072958;28;20199;-80
2023/11/27 00:58:02;;;;;;;2.53;1.40;;;;;;;-145.69;63.34;52398.84;5072738;28;20234;-80
2023/11/27 01:00:29;;;;;;;6.43;1.57;;;;;;;-145.69;63.77;52414.69;5073447;28;20205;-81
2023/11/27 01:02:56;;;;;;;2.37;1.50;;;;;;;-145.69;63.45;52400.81;5073325;28;20601;-79
2023/11/27 01:05:23;;;;;;;3.70;1.80;;;;;;;-145.69;63.67;52416.66;5073032;28;20202;-80
2023/11/27 01:07:50;;;;;;;2.00;1.50;;;;;;;-145.69;63.07;52402.78;5064496;28;20219;-80
2023/11/27 01:10:17;;;;;;;2.37;1.53;;;;;;;-145.69;63.45;52430.53;5052559;28;20211;-80
2023/11/27 01:12:44;;;;;;;3.40;1.70;;;;;;;-145.69;63.36;52406.75;5052931;28;20585;-80
2023/11/27 01:15:12;;;;;;;5.00;1.47;;;;;;;-145.69;63.09;52408.75;5053087;28;20597;-80
2023/11/27 01:17:39;;;;;;;4.93;1.60;;;;;;;-145.69;63.46;52422.59;5053006;28;20200;-80
2023/11/27 01:20:07;;;;;;;2.17;1.40;;;;;;;-145.69;63.77;52434.47;5053503;28;20231;-80
2023/11/27 01:22:34;;;;;;;5.00;1.37;;;;;;;-145.69;63.42;52388.94;5072590;28;20229;-80
2023/11/27 01:25:00;;;;;;;2.00;1.27;;;;;;;-145.69;63.57;52394.88;5072385;28;20562;-79
2023/11/27 01:27:27;;;;;;;2.77;1.43;;;;;;;-145.69;63.73;52400.81;5072608;28;20662;-80
2023/11/27 01:29:53;;;;;;;5.27;1.50;;;;;;;-145.69;63.91;52404.78;5071789;28;20201;-80
2023/11/27 01:32:22;;;;;;;2.00;1.30;;;;;;;-145.69;63.99;52434.47;5072801;28;20227;-80
2023/11/27 01:34:48;;;;;;;3.80;1.50;;;;;;;-145.69;63.87;52388.94;5072908;28;20244;-80
2023/11/27 01:37:15;;;;;;;1.87;1.30;;;;;;;-145.69;63.37;52410.72;5072696;28;20203;-80
2023/11/27 01:39:41;;;;;;;2.13;1.60;;;;;;;-145.69;63.44;52404.78;5072524;28;20666;-80
2023/11/27 01:42:09;;;;;;;1.70;1.10;;;;;;;-145.69;63.27;52424.59;5073065;28;20562;-80
2023/11/27 01:44:36;;;;;;;3.77;1.40;;;;;;;-145.69;63.67;52396.84;5072706;28;20653;-80
2023/11/27 01:47:03;;;;;;;3.97;1.73;;;;;;;-145.69;62.99;52422.59;5072490;28;20203;-80
2023/11/27 01:49:31;;;;;;;3.57;1.47;;;;;;;-145.69;63.51;52426.56;5072670;28;20202;-80
2023/11/27 01:51:59;;;;;;;2.93;1.57;;;;;;;-145.69;62.99;52371.13;5057113;28;20219;-81
2023/11/27 01:54:26;;;;;;;2.77;1.63;;;;;;;-145.69;63.04;52444.38;5052335;28;20693;-80
2023/11/27 01:56:54;;;;;;;4.43;1.37;;;;;;;-145.69;63.35;52412.69;5053539;28;20200;-80
2023/11/27 01:59:22;;;;;;;2.40;1.50;;;;;;;-145.69;63.11;52414.69;5052501;28;20215;-80
2023/11/27 02:01:48;;;;;;;1.97;1.40;;;;;;;-145.69;63.06;52412.69;5052577;28;20203;-80
2023/11/27 02:04:14;;;;;;;3.50;1.40;;;;;;;-145.69;62.94;52422.59;5052736;28;20206;-80
2023/11/27 02:06:42;;;;;;;3.37;1.47;;;;;;;-145.69;62.72;52396.84;5072123;28;20213;-80
2023/11/27 02:09:10;;;;;;;3.43;1.20;;;;;;;-145.69;62.58;52412.69;5072284;28;20222;-80
2023/11/27 02:11:44;;;;;;;3.40;1.30;;;;;;;-145.69;62.99;52416.66;5072583;28;20628;-81
2023/11/27 02:14:10;;;;;;;1.83;1.20;;;;;;;-145.69;62.65;52406.75;5072274;28;20199;-80
2023/11/27 02:16:37;;;;;;;2.53;1.20;;;;;;;-145.69;62.62;52412.69;5072394;28;20206;-80
2023/11/27 02:19:03;;;;;;;1.40;1.07;;;;;;;-145.69;62.65;52420.63;5072315;28;20612;-80
2023/11/27 02:21:30;;;;;;;3.60;1.50;;;;;;;-145.69;62.46;52426.56;5072176;28;20221;-81
2023/11/27 02:23:58;;;;;;;1.88;1.20;;;;;;;-145.69;63.79;52424.59;5071555;28;20445;-81
2023/11/27 02:26:24;;;;;;;1.53;1.07;;;;;;;-145.69;63.15;52420.63;5072006;28;20202;-81
2023/11/27 02:28:51;;;;;;;2.17;1.33;;;;;;;-145.69;62.74;52377.06;5072273;28;20300;-80
2023/11/27 02:31:17;;;;;;;1.63;1.30;;;;;;;-145.69;62.85;52400.81;5072311;28;20203;-80
2023/11/27 02:33:43;;;;;;;1.77;1.27;;;;;;;-145.69;62.98;52424.59;5072060;28;20230;-81
2023/11/27 02:36:10;;;;;;;4.90;1.40;;;;;;;-145.69;63.12;52420.63;5072100;28;20210;-81
2023/11/27 02:38:37;;;;;;;3.80;1.33;;;;;;;-145.69;62.63;52420.63;5072221;28;20251;-81
2023/11/27 02:41:06;;;;;;;2.57;1.20;;;;;;;-145.69;61.97;52412.69;5073544;28;20209;-80
2023/11/27 02:43:34;;;;;;;2.33;1.03;;;;;;;-145.69;61.97;52402.78;5074805;28;20530;-81
2023/11/27 02:46:01;;;;;;;1.13;1.03;;;;;;;-145.69;62.61;52444.38;5075616;28;20202;-80
2023/11/27 02:48:27;;;;;;;3.67;1.30;;;;;;;-145.69;62.91;52390.91;5075589;28;20663;-81
2023/11/27 02:50:54;;;;;;;1.30;1.10;;;;;;;-145.69;62.84;52436.47;5075537;28;20206;-80
2023/11/27 02:53:22;;;;;;;1.60;1.03;;;;;;;-145.69;63.19;52406.75;5075539;28;20728;-80
2023/11/27 02:55:48;;;;;;;2.17;1.10;;;;;;;-145.69;63.04;52416.66;5075620;28;20248;-80
2023/11/27 02:58:17;;;;;;;1.63;1.07;;;;;;;-145.69;63.34;52412.69;5075624;28;20203;-80
2023/11/27 03:00:43;;;;;;;1.60;1.13;;;;;;;-145.69;63.46;52416.66;5075421;28;20195;-80
2023/11/27 03:03:10;;;;;;;1.10;1.00;;;;;;;-145.69;63.51;52406.75;5075482;28;20194;-80
2023/11/27 03:05:36;;;;;;;2.37;1.30;;;;;;;-145.69;63.51;52384.97;5075656;28;20214;-80
2023/11/27 03:08:03;;;;;;;3.87;1.10;;;;;;;-145.69;63.52;52416.66;5071856;28;20234;-80
2023/11/27 03:10:30;;;;;;;1.07;0.97;;;;;;;-145.69;62.98;52420.63;5075184;28;20202;-81
2023/11/27 03:12:56;;;;;;;1.50;1.00;;;;;;;-145.69;62.92;52430.53;5074815;28;20226;-80
2023/11/27 03:15:24;;;;;;;2.10;1.10;;;;;;;-145.69;62.98;52420.63;5075088;28;20198;-80
2023/11/27 03:17:51;;;;;;;2.23;1.37;;;;;;;-145.69;62.23;52379.03;5075408;28;20210;-80
2023/11/27 03:20:17;;;;;;;3.37;1.30;;;;;;;-145.69;61.97;52412.69;5075225;28;20203;-80
2023/11/27 03:22:44;;;;;;;1.27;1.17;;;;;;;-145.69;61.92;52373.09;5074813;28;20202;-80
2023/11/27 03:25:10;;;;;;;2.43;1.20;;;;;;;-145.69;61.89;52412.69;5075188;28;20608;-81
2023/11/27 03:27:37;;;;;;;3.80;1.50;;;;;;;-145.69;61.85;52440.44;5074975;28;20195;-81
2023/11/27 03:30:05;;;;;;;1.77;1.20;;;;;;;-145.69;62.02;52402.78;5074801;28;20199;-80
2023/11/27 03:32:32;;;;;;;3.27;1.07;;;;;;;-145.69;61.89;52404.78;5060125;28;20230;-80
2023/11/27 03:34:59;;;;;;;3.07;1.37;;;;;;;-145.69;61.69;52408.75;5054833;28;20195;-80
2023/11/27 03:37:25;;;;;;;3.90;1.43;;;;;;;-145.69;61.75;52424.59;5054783;28;20195;-80
2023/11/27 03:39:52;;;;;;;4.77;1.30;;;;;;;-145.69;62.29;52404.78;5054818;28;20215;-80
2023/11/27 03:42:18;;;;;;;1.37;1.23;;;;;;;-145.69;62.03;52384.97;5064701;28;20202;-80
2023/11/27 03:44:45;;;;;;;3.77;1.60;;;;;;;-145.69;61.91;52410.72;5074678;28;20202;-80
2023/11/27 03:47:11;;;;;;;2.23;1.40;;;;;;;-145.69;62.30;52438.44;5074530;28;20198;-81
2023/11/27 03:49:39;;;;;;;1.97;1.40;;;;;;;-145.69;61.74;52365.16;5074459;28;20202;-79
2023/11/27 03:52:07;;;;;;;2.60;1.53;;;;;;;-145.69;61.86;52353.28;5073525;28;20198;-79
2023/11/27 03:54:33;;;;;;;2.83;1.40;;;;;;;-145.69;61.97;52408.75;5074601;28;20203;-80
2023/11/27 03:57:00;;;;;;;1.93;1.43;;;;;;;-145.69;61.22;52369.13;5074437;28;20650;-80
2023/11/27 03:59:26;;;;;;;2.30;1.57;;;;;;;-145.69;62.00;52394.88;5063139;28;20225;-79
2023/11/27 04:01:53;;;;;;;5.37;1.70;;;;;;;-145.69;62.09;52392.91;5054321;28;20699;-79
2023/11/27 04:04:19;;;;;;;4.90;1.50;;;;;;;-145.69;61.89;52406.75;5053955;28;20199;-80
2023/11/27 04:06:47;;;;;;;4.10;1.70;;;;;;;-145.69;61.86;52404.78;5054122;28;20253;-80
2023/11/27 04:09:13;;;;;;;2.80;1.57;;;;;;;-145.69;62.15;52400.81;5054183;28;20239;-80
2023/11/27 04:11:40;;;;;;;3.60;1.87;;;;;;;-145.69;62.13;52400.81;5058500;28;20191;-80
2023/11/27 04:14:06;;;;;;;3.47;2.03;;;;;;;-145.69;62.59;52412.69;5073254;28;20259;-80
2023/11/27 04:16:33;;;;;;;3.53;1.73;;;;;;;-145.69;62.34;52412.69;5073830;28;20213;-79
2023/11/27 04:18:59;;;;;;;4.87;1.50;;;;;;;-145.69;62.23;52420.63;5073858;28;20195;-79
2023/11/27 04:21:26;;;;;;;4.23;1.77;;;;;;;-145.69;62.35;52396.84;5073863;28;20233;-79
2023/11/27 04:23:54;;;;;;;3.30;2.07;;;;;;;-145.69;62.31;52408.75;5073717;28;20210;-79
2023/11/27 04:26:21;;;;;;;2.50;1.53;;;;;;;-145.69;62.67;52400.81;5073537;28;20195;-79
2023/11/27 04:28:48;;;;;;;3.17;1.70;;;;;;;-145.69;62.44;52400.81;5073758;28;20205;-79
2023/11/27 04:31:15;;;;;;;2.57;1.70;;;;;;;-145.69;62.40;52412.69;5073640;28;20276;-79
2023/11/27 04:33:41;;;;;;;2.93;1.90;;;;;;;-145.69;62.31;52420.63;5073736;28;20229;-79
2023/11/27 04:36:09;;;;;;;2.70;1.90;;;;;;;-145.69;62.67;52412.69;5073595;28;20554;-79
2023/11/27 04:38:36;;;;;;;3.27;1.90;;;;;;;-145.69;62.51;52418.63;5073313;28;20198;-79
2023/11/27 04:41:04;;;;;;;4.20;1.87;;;;;;;-145.69;62.64;52383.00;5073508;28;20198;-79
2023/11/27 04:43:30;;;;;;;3.40;1.60;;;;;;;-145.69;62.76;52408.75;5073024;28;20669;-79
2023/11/27 04:45:57;;;;;;;3.17;1.87;;;;;;;-145.69;62.79;52398.84;5073298;28;20199;-79
2023/11/27 04:48:24;;;;;;;2.17;1.80;;;;;;;-145.69;62.69;52381.00;5073408;28;20207;-79
2023/11/27 04:50:50;;;;;;;5.07;1.67;;;;;;;-145.69;62.82;52416.66;5073395;28;20207;-79
2023/11/27 04:53:17;;;;;;;3.53;2.23;;;;;;;-145.69;63.22;52428.53;5070949;28;20680;-79
2023/11/27 04:55:43;;;;;;;4.83;2.27;;;;;;;-145.69;63.14;52402.78;5072478;28;20198;-80
2023/11/27 04:58:11;;;;;;;5.67;2.27;;;;;;;-145.69;63.50;52404.78;5073297;28;20202;-79
2023/11/27 05:00:37;;;;;;;3.40;1.87;;;;;;;-145.69;63.30;52408.75;5073110;28;20199;-79
2023/11/27 05:03:04;;;;;;;2.83;1.90;;;;;;;-145.69;62.87;52418.63;5073127;28;20210;-79
2023/11/27 05:05:30;;;;;;;3.33;2.00;;;;;;;-145.69;63.23;52384.97;5072364;28;20198;-79
2023/11/27 05:07:56;;;;;;;3.87;2.07;;;;;;;-145.69;63.41;52404.78;5072824;28;20252;-80
2023/11/27 05:10:23;;;;;;;5.13;2.13;;;;;;;-145.69;62.97;52392.91;5072850;28;20254;-80
2023/11/27 05:12:50;;;;;;;3.30;2.03;;;;;;;-145.69;63.22;52365.16;5072364;28;20577;-79
2023/11/27 05:15:18;;;;;;;2.60;2.03;;;;;;;-145.69;62.99;52422.59;5072683;28;20298;-79
2023/11/27 05:17:46;;;;;;;3.70;2.27;;;;;;;-145.69;63.19;52412.69;5058457;28;20231;-79
2023/11/27 05:20:13;;;;;;;5.37;2.77;;;;;;;-145.69;62.84;52420.63;5052856;28;20219;-79
2023/11/27 05:22:40;;;;;;;5.17;2.60;;;;;;;-145.69;63.04;52410.72;5052862;28;20203;-79
2023/11/27 05:25:07;;;;;;;3.67;2.27;;;;;;;-145.69;63.39;52381.00;5052739;28;20665;-79
2023/11/27 05:27:33;;;;;;;4.23;2.20;;;;;;;-145.69;63.09;52400.81;5052501;28;20625;-80
2023/11/27 05:30:00;;;;;;;4.10;2.40;;;;;;;-145.69;62.94;52400.81;5052408;28;20558;-79
2023/11/27 05:32:28;;;;;;;7.30;2.20;;;;;;;-145.69;63.23;52394.88;5052670;28;20661;-79
2023/11/27 05:34:54;;;;;;;3.30;2.10;;;;;;;-145.69;63.19;52396.84;5052843;28;20631;-79
2023/11/27 05:37:20;;;;;;;3.17;2.07;;;;;;;-145.69;62.94;52400.81;5052335;28;20651;-79
2023/11/27 05:39:47;;;;;;;5.03;2.53;;;;;;;-145.69;63.19;52386.97;5052533;28;20238;-79
2023/11/27 05:42:13;;;;;;;5.83;2.63;;;;;;;-145.69;63.09;52388.94;5057729;28;20206;-79
2023/11/27 05:44:41;;;;;;;4.40;2.00;;;;;;;-145.69;63.06;52422.59;5072576;28;20195;-79
2023/11/27 05:47:08;;;;;;;5.37;2.53;;;;;;;-145.69;62.76;52404.78;5072494;28;20209;-79
2023/11/27 05:49:35;;;;;;;5.27;2.27;;;;;;;-145.69;62.65;52388.94;5072623;28;20206;-79
2023/11/27 05:52:03;;;;;;;5.67;2.43;;;;;;;-145.69;62.94;52384.97;5072759;28;20194;-79
2023/11/27 05:54:29;;;;;;;4.87;2.47;;;;;;;-145.69;62.85;52432.50;5072555;28;20230;-80
2023/11/27 05:56:56;;;;;;;4.20;2.70;;;;;;;-145.69;62.77;52377.06;5072665;28;20205;-79
2023/11/27 05:59:22;;;;;;;4.20;2.40;;;;;;;-145.69;62.62;52394.88;5054967;28;20230;-79
2023/11/27 06:01:49;;;;;;;6.63;2.50;;;;;;;-145.69;63.00;52394.88;5052574;28;20536;-79
2023/11/27 06:04:15;;;;;;;3.63;2.23;;;;;;;-145.69;62.68;52412.69;5051869;28;20665;-80
2023/11/27 06:06:43;;;;;;;4.07;2.20;;;;;;;-145.69;62.49;52390.91;5052540;28;20195;-80
2023/11/27 06:09:11;;;;;;;4.53;2.70;;;;;;;-145.69;62.37;52434.47;5052409;28;20224;-80
2023/11/27 06:11:37;;;;;;;6.30;2.47;;;;;;;-145.69;62.94;52381.00;5052569;28;20250;-79
2023/11/27 06:14:04;;;;;;;5.80;2.50;;;;;;;-145.69;62.64;52383.00;5072413;28;20226;-79
2023/11/27 06:16:30;;;;;;;6.27;2.37;;;;;;;-145.69;62.94;52430.53;5072547;28;20210;-79
2023/11/27 06:18:57;;;;;;;5.03;2.60;;;;;;;-145.69;62.60;52412.69;5076275;28;20214;-78
2023/11/27 06:21:23;;;;;;;5.00;2.30;;;;;;;-145.69;62.87;52420.63;5076140;28;20203;-79
2023/11/27 06:23:51;;;;;;;4.97;2.33;;;;;;;-145.69;62.92;52398.84;5076528;28;20222;-79
2023/11/27 06:26:18;;;;;;;7.03;2.43;;;;;;;-145.69;62.59;52434.47;5076350;28;20260;-79
2023/11/27 06:28:44;;;;;;;6.07;2.20;;;;;;;-145.69;62.42;52404.78;5076216;28;20234;-80
2023/11/27 06:31:11;;;;;;;3.73;2.07;;;;;;;-145.69;62.32;52418.63;5076026;28;20199;-79
2023/11/27 06:33:37;;;;;;;3.90;2.53;;;;;;;-145.69;62.40;52390.91;5076102;28;20223;-79
2023/11/27 06:36:05;;;;;;;3.37;2.07;;;;;;;-145.69;62.39;52412.69;5075803;28;20217;-79
2023/11/27 06:38:31;;;;;;;6.97;2.57;;;;;;;-145.69;62.28;52412.69;5075978;28;20672;-80
2023/11/27 06:40:59;;;;;;;3.03;1.77;;;;;;;-145.69;62.74;52400.81;5076012;28;20199;-80
2023/11/27 06:43:27;;;;;;;4.53;1.73;;;;;;;-145.69;62.64;52412.69;5075550;28;20194;-79
2023/11/27 06:45:53;;;;;;;4.13;2.10;;;;;;;-145.69;62.37;52365.16;5076204;28;20199;-79
2023/11/27 06:48:20;;;;;;;4.77;2.10;;;;;;;-145.69;62.40;52390.91;5076232;28;20234;-80
2023/11/27 06:50:47;;;;;;;3.10;1.70;;;;;;;-145.69;62.04;52412.69;5075617;28;20206;-80
2023/11/27 06:53:14;;;;;;;3.50;2.03;;;;;;;-145.69;62.16;52432.50;5075510;28;20234;-79
2023/11/27 06:55:40;;;;;;;4.93;2.10;;;;;;;-145.69;62.21;52388.94;5075610;28;20209;-80
2023/11/27 06:58:08;;;;;;;5.50;1.97;;;;;;;-145.69;62.57;52384.97;5075687;28;20562;-79
2023/11/27 07:00:36;;;;;;;4.67;1.90;;;;;;;-145.69;62.37;52400.81;5075421;28;20199;-79
2023/11/27 07:03:03;;;;;;;4.07;1.73;;;;;;;-145.69;62.24;52381.00;5075655;28;20713;-79
2023/11/27 07:05:30;;;;;;;6.37;2.27;;;;;;;-145.69;62.63;52381.00;5075747;28;20225;-79
2023/11/27 07:07:57;;;;;;;2.90;1.87;;;;;;;-145.69;62.33;52434.47;5075382;28;20231;-79
2023/11/27 07:10:25;;;;;;;4.87;2.20;;;;;;;-145.69;62.24;52381.00;5073107;28;20621;-79
2023/11/27 07:12:51;;;;;;;3.33;1.87;;;;;;;-145.69;62.25;52400.81;5074645;28;20607;-79
2023/11/27 07:15:19;;;;;;;3.57;2.00;;;;;;;-145.69;62.31;52424.59;5075536;28;20599;-79
2023/11/27 07:17:45;;;;;;;4.30;2.10;;;;;;;-145.69;62.25;52392.91;5075410;28;20202;-79
2023/11/27 07:20:17;;;;;;;2.47;1.57;;;;;;;-145.69;62.34;52394.88;5075516;28;20199;-80
2023/11/27 07:22:44;;;;;;;2.67;1.80;;;;;;;-145.69;62.50;52375.06;5075984;28;20203;-80
2023/11/27 07:25:12;;;;;;;2.80;1.80;;;;;;;-145.69;62.29;52404.78;5075091;28;20206;-79
2023/11/27 07:27:40;;;;;;;2.10;1.20;;;;;;;-145.69;61.79;52406.75;5074345;28;20234;-79
2023/11/27 07:30:08;;;;;;;6.10;2.50;;;;;;;-145.69;61.96;52392.91;5074946;28;20290;-79
2023/11/27 07:32:36;;;;;;;5.03;1.80;;;;;;;-145.69;60.90;52379.03;5074939;28;20210;-79
2023/11/27 07:35:02;;;;;;;2.60;1.85;;;;;;;-145.69;61.64;52375.06;5074428;28;20458;-79
2023/11/27 07:37:29;;;;;;;4.93;1.63;;;;;;;-145.69;61.40;52412.69;5074812;28;20226;-79
2023/11/27 07:39:55;;;;;;;3.00;1.70;;;;;;;-145.69;61.57;52386.97;5074682;28;20221;-80
2023/11/27 07:42:22;;;;;;;4.27;1.60;;;;;;;-145.69;61.54;52361.22;5075047;28;20207;-80
2023/11/27 07:44:48;;;;;;;4.47;1.70;;;;;;;-145.69;61.36;52418.63;5074625;28;20213;-80
2023/11/27 07:47:15;;;;;;;3.67;1.67;;;;;;;-145.69;61.56;52418.63;5074787;28;20202;-79
2023/11/27 07:49:42;;;;;;;2.70;1.60;;;;;;;-145.69;61.29;52438.44;5074793;28;20194;-79
2023/11/27 07:52:09;;;;;;;3.60;1.60;;;;;;;-145.69;60.89;52410.72;5074570;28;20210;-80
2023/11/27 07:54:35;;;;;;;2.37;1.73;;;;;;;-145.69;60.67;52384.97;5074403;28;20222;-80
2023/11/27 07:57:02;;;;;;;6.77;2.27;;;;;;;-145.69;60.79;52418.63;5074283;28;20614;-79
2023/11/27 07:59:28;;;;;;;2.57;1.80;;;;;;;-145.69;61.31;52406.75;5073627;28;20221;-79
2023/11/27 08:01:56;;;;;;;6.43;2.73;;;;;;;-145.69;60.59;52392.91;5074435;28;20202;-79
2023/11/27 08:04:22;;;;;;;3.70;2.20;;;;;;;-145.69;61.09;52408.75;5073665;28;20237;-79
2023/11/27 08:06:50;;;;;;;8.23;2.47;;;;;;;-145.69;60.54;52386.97;5073079;28;20218;-79
2023/11/27 08:09:17;;;;;;;3.23;2.30;;;;;;;-145.69;60.76;52369.13;5074240;28;20266;-79
2023/11/27 08:11:43;;;;;;;4.73;2.40;;;;;;;-145.69;60.52;52363.19;5073939;28;20198;-79
2023/11/27 08:14:10;;;;;;;2.83;1.50;;;;;;;-145.69;59.97;52361.22;5074091;28;20305;-79
2023/11/27 08:16:37;;;;;;;5.03;2.20;;;;;;;-145.69;60.74;52408.75;5074188;28;20563;-79
2023/11/27 08:19:03;;;;;;;2.10;1.87;;;;;;;-145.69;59.71;52394.88;5074113;28;20206;-79
2023/11/27 08:21:30;;;;;;;2.27;1.70;;;;;;;-145.69;59.90;52428.53;5072727;28;20592;-79
2023/11/27 08:23:58;;;;;;;4.57;1.40;;;;;;;-145.69;59.68;52394.88;5073490;28;20685;-79
2023/11/27 08:26:25;;;;;;;2.30;1.60;;;;;;;-145.69;60.01;52377.06;5074066;28;20253;-79
2023/11/27 08:28:51;;;;;;;1.83;1.30;;;;;;;-145.69;60.23;52357.25;5073838;28;20693;-79
2023/11/27 08:31:19;;;;;;;4.17;1.43;;;;;;;-145.69;59.94;52400.81;5073675;28;20400;-79
2023/11/27 08:33:46;;;;;;;2.03;1.30;;;;;;;-145.69;58.86;52400.81;5073919;28;20232;-79
2023/11/27 08:36:13;;;;;;;3.53;1.07;;;;;;;-145.69;59.91;52420.63;5073347;28;20252;-79
2023/11/27 08:38:39;;;;;;;1.03;1.00;;;;;;;-145.69;58.70;52365.16;5073785;28;20203;-79
2023/11/27 08:41:07;;;;;;;2.47;1.30;;;;;;;-145.69;58.69;52398.84;5073812;28;20206;-79
2023/11/27 08:43:35;;;;;;;1.33;1.23;;;;;;;-145.69;58.63;52375.06;5073781;28;20214;-79
2023/11/27 08:46:02;;;;;;;1.37;1.27;;;;;;;-145.69;57.94;52325.56;5073670;28;20654;-79
2023/11/27 08:48:29;;;;;;;1.87;1.20;;;;;;;-145.69;57.73;52379.03;5073667;28;20205;-80
2023/11/27 08:50:55;;;;;;;1.67;1.20;;;;;;;-145.69;57.61;52381.00;5072979;28;20199;-79
2023/11/27 08:53:24;;;;;;;1.30;1.17;;;;;;;-145.69;57.29;52345.38;5073694;28;20209;-80
2023/11/27 08:55:50;;;;;;;4.20;1.73;;;;;;;-145.69;56.60;52353.28;5073502;28;20225;-79
2023/11/27 08:58:18;;;;;;;2.37;1.40;;;;;;;-145.69;55.87;52357.25;5073475;28;20199;-79
2023/11/27 09:00:45;;;;;;;2.13;1.23;;;;;;;-145.69;55.74;52345.38;5073183;28;20199;-79
2023/11/27 09:03:11;;;;;;;2.93;1.13;;;;;;;-145.69;56.41;52388.94;5072945;28;20662;-79
2023/11/27 09:05:42;;;;;;;1.93;1.20;;;;;;;-145.69;55.20;52345.38;5073265;28;20544;-78
2023/11/27 09:08:09;;;;;;;1.57;1.03;;;;;;;-145.69;55.60;52373.09;5073038;28;20233;-79
2023/11/27 09:10:36;;;;;;;1.77;1.30;;;;;;;-145.69;56.10;52353.28;5073283;28;20194;-79
2023/11/27 09:13:04;;;;;;;2.83;1.30;;;;;;;-145.69;54.38;52355.28;5073193;28;20603;-79
2023/11/27 09:15:32;;;;;;;1.77;1.20;;;;;;;-145.69;53.82;52371.13;5072832;28;20226;-80
2023/11/27 09:17:59;;;;;;;1.50;1.00;;;;;;;-145.69;53.80;52384.97;5069812;28;20226;-79
2023/11/27 09:20:27;;;;;;;1.50;1.17;;;;;;;-145.69;53.47;52353.28;5073208;28;20677;-79
2023/11/27 09:22:56;;;;;;;1.17;0.93;;;;;;;-145.69;53.60;52337.44;5073150;28;20653;-80
2023/11/27 09:25:22;;;;;;;1.97;1.03;;;;;;;-145.69;53.07;52357.25;5072797;28;20222;-79
2023/11/27 09:27:49;;;;;;;2.17;1.13;;;;;;;-145.69;53.14;52337.44;5073114;28;20205;-79
2023/11/27 09:30:15;;;;;;;1.37;1.10;;;;;;;-145.69;52.26;52371.13;5072437;28;20206;-79
2023/11/27 09:32:43;;;;;;;1.93;1.37;;;;;;;-145.69;53.50;52349.31;5072991;28;20203;-79
2023/11/27 09:35:12;;;;;;;1.97;1.10;;;;;;;-145.69;52.48;52365.16;5072826;28;20237;-79
2023/11/27 09:37:39;;;;;;;2.33;1.40;;;;;;;-145.69;51.63;52349.31;5072540;28;20569;-79
2023/11/27 09:40:08;;;;;;;1.20;1.03;;;;;;;-145.69;51.76;52347.34;5072777;28;20234;-80
2023/11/27 09:42:36;;;;;;;2.03;1.20;;;;;;;-145.69;51.76;52321.59;5073463;28;20403;-79
2023/11/27 09:45:04;;;;;;;2.97;1.37;;;;;;;-145.69;52.04;52355.28;5073107;28;20749;-79
2023/11/27 09:47:31;;;;;;;1.40;1.03;;;;;;;-145.69;51.63;52333.47;5073060;28;20195;-80
2023/11/27 09:50:00;;;;;;;2.47;1.37;;;;;;;-145.69;50.01;52287.94;5073060;28;20230;-80
2023/11/27 09:52:33;;;;;;;1.67;1.13;;;;;;;-145.69;49.90;52335.47;5077065;28;20554;-80
2023/11/27 09:55:05;;;;;;;2.63;1.40;;;;;;;-145.69;49.84;52303.78;5076903;28;20759;-80
2023/11/27 09:57:32;;;;;;;2.80;1.30;;;;;;;-145.69;49.59;52353.28;5076831;28;20202;-80
2023/11/27 09:59:59;;;;;;;4.17;2.53;;;;;;;-145.69;48.23;52321.59;5076359;28;20195;-79
2023/11/27 10:02:26;;;;;;;3.57;2.10;;;;;;;-145.69;47.56;52305.75;5076686;28;20649;-80
2023/11/27 10:04:53;;;;;;;4.20;2.30;;;;;;;-145.69;46.28;52357.25;5076574;28;20674;-80
2023/11/27 10:07:22;;;;;;;4.97;2.50;;;;;;;-145.69;46.59;52331.50;5075809;28;20195;-79
2023/11/27 10:09:51;;;;;;;3.27;1.93;;;;;;;-145.69;45.21;52349.31;5076172;28;20207;-79
2023/11/27 10:12:24;;;;;;;3.50;2.00;;;;;;;-145.69;45.48;52297.84;5072387;28;20196;-79
2023/11/27 10:14:53;;;;;;;10.47;3.83;;;;;;;-145.69;44.75;52345.38;5056364;28;20690;-80
2023/11/27 10:17:19;;;;;;;8.07;4.47;;;;;;;-145.69;44.47;52317.66;5056317;28;20195;-80
2023/11/27 10:19:46;;;;;;;4.33;3.17;;;;;;;-145.69;43.61;52283.97;5056399;28;20212;-79
2023/11/27 10:22:12;;;;;;;2.57;1.80;;;;;;;-145.69;43.88;52291.91;5056650;28;20205;-80
2023/11/27 10:24:41;;;;;;;3.50;2.33;;;;;;;-145.69;43.31;52331.50;5056399;28;20199;-80
2023/11/27 10:27:08;;;;;;;3.57;2.10;;;;;;;-145.69;43.22;52301.81;5056105;28;20210;-79
2023/11/27 10:29:35;;;;;;;3.60;2.07;;;;;;;-145.69;44.25;52315.66;5056238;28;20586;-79
2023/11/27 10:32:02;;;;;;;2.53;1.93;;;;;;;-145.69;43.75;52329.53;5075998;28;20588;-80
2023/11/27 10:34:32;;;;;;;3.23;2.23;;;;;;;-145.69;43.44;52329.53;5075904;28;20223;-80
2023/11/27 10:37:01;;;;;;;4.30;2.03;;;;;;;-145.69;43.61;52345.38;5075869;28;20203;-79
2023/11/27 10:39:32;;;;;;;3.63;2.20;;;;;;;-145.69;43.47;52309.72;5075946;28;20256;-80
2023/11/27 10:42:02;;;;;;;4.17;2.10;;;;;;;-145.69;44.26;52321.59;5076141;28;20209;-80
2023/11/27 10:44:36;;;;;;;3.13;2.00;;;;;;;-145.69;43.20;52305.75;5069702;28;20234;-80
2023/11/27 10:47:09;;;;;;;2.07;1.63;;;;;;;-145.69;42.87;52282.00;5064598;28;20603;-80
2023/11/27 10:49:38;;;;;;;3.70;2.07;;;;;;;-145.69;42.41;52305.75;5059864;28;20203;-79
2023/11/27 10:52:09;;;;;;;3.80;1.50;;;;;;;-145.69;42.31;52293.88;5059371;28;20234;-79
2023/11/27 10:54:38;;;;;;;4.93;2.00;;;;;;;-145.69;41.59;52321.59;5055807;28;20760;-80
2023/11/27 10:57:13;;;;;;;2.93;1.40;;;;;;;-145.69;42.43;52309.72;5055752;28;20200;-81
2023/11/27 10:59:42;;;;;;;3.97;2.03;;;;;;;-145.69;42.63;52321.59;5055794;28;20195;-79
2023/11/27 11:02:11;;;;;;;4.60;2.07;;;;;;;-145.69;42.71;52274.06;5055899;28;20627;-81
2023/11/27 11:04:53;;;;;;;3.93;1.40;;;;;;;-145.69;42.07;52283.97;5056011;28;20261;-81
2023/11/27 11:07:42;;;;;;;;;;;;;;;;;;;;;
2023/11/27 11:10:11;;;;;;;3.00;1.47;;;;;;;-145.69;41.45;52293.88;5060199;28;20199;-79
2023/11/27 11:12:41;;;;;;;1.90;1.30;;;;;;;-145.69;41.44;52317.66;5061720;28;20214;-80
2023/11/27 11:15:13;;;;;;;2.13;1.23;;;;;;;-145.69;41.85;52293.88;5060464;28;20585;-80
2023/11/27 11:17:47;;;;;;;2.97;1.00;;;;;;;-145.69;41.08;52278.03;5061792;28;20742;-79
2023/11/27 11:20:25;;;;;;;1.87;1.00;;;;;;;-145.69;42.09;52287.94;5061711;28;20222;-79